createdAt,value
2018-06-25T00:00:25.296Z,53.22
2018-06-25T00:01:34.357Z,53.41
2018-06-25T00:02:43.218Z,52.94
2018-06-25T00:03:52.080Z,53.13
2018-06-25T00:05:00.938Z,53.03
2018-06-25T00:06:09.798Z,52.17
2018-06-25T00:07:18.660Z,52.75
2018-06-25T00:08:27.794Z,52.75
2018-06-25T00:09:36.655Z,52.08
2018-06-25T00:10:45.516Z,51.89
2018-06-25T00:11:54.376Z,51.5
2018-06-25T00:13:03.437Z,51.21
2018-06-25T00:14:12.299Z,51.12
2018-06-25T00:15:21.159Z,50.55
2018-06-25T00:16:30.296Z,50.45
2018-06-25T00:17:39.156Z,50.35
2018-06-25T00:18:48.465Z,49.98
2018-06-25T00:19:57.324Z,49.59
2018-06-25T00:21:06.186Z,49.98
2018-06-25T00:22:15.051Z,49.69
2018-06-25T00:23:24.185Z,50.26
2018-06-25T00:24:33.194Z,49.69
2018-06-25T00:25:42.057Z,49.69
2018-06-25T00:26:50.914Z,49.3
2018-06-25T00:27:59.771Z,49.3
2018-06-25T00:29:08.632Z,49.02
2018-06-25T00:30:17.774Z,48.93
2018-06-25T00:31:26.919Z,49.11
2018-06-25T00:32:36.052Z,48.73
2018-06-25T00:33:45.194Z,48.64
2018-06-25T00:34:54.056Z,47.97
2018-06-25T00:36:02.912Z,47.87
2018-06-25T00:37:11.771Z,47.87
2018-06-25T00:38:20.912Z,48.07
2018-06-25T00:39:29.777Z,47.39
2018-06-25T00:40:38.636Z,47.49
2018-06-25T00:41:47.499Z,47.01
2018-06-25T00:42:56.360Z,46.82
2018-06-25T00:44:05.218Z,46.92
2018-06-25T00:45:14.078Z,46.92
2018-06-25T00:46:22.940Z,47.01
2018-06-25T00:47:32.151Z,46.63
2018-06-25T00:48:41.016Z,46.53
2018-06-25T00:49:50.154Z,46.63
2018-06-25T00:50:59.292Z,46.06
2018-06-25T00:52:08.154Z,46.15
2018-06-25T00:53:17.063Z,45.87
2018-06-25T00:54:25.922Z,46.15
2018-06-25T00:55:34.783Z,45.77
2018-06-25T00:56:43.921Z,45.96
2018-06-25T00:57:52.783Z,45.39
2018-06-25T00:59:01.794Z,45.39
2018-06-25T01:00:10.936Z,45.2
2018-06-25T01:01:19.798Z,45.1
2018-06-25T01:02:28.934Z,45.1
2018-06-25T01:03:37.791Z,44.72
2018-06-25T01:04:46.652Z,44.53
2018-06-25T01:05:55.528Z,44.15
2018-06-25T01:07:04.374Z,43.48
2018-06-25T01:08:13.234Z,43.66
2018-06-25T01:09:22.095Z,43
2018-06-25T01:10:31.005Z,42.9
2018-06-25T01:11:39.867Z,42.52
2018-06-25T01:12:48.725Z,42.33
2018-06-25T01:13:57.587Z,41.75
2018-06-25T01:15:06.724Z,41.85
2018-06-25T01:16:15.736Z,41.85
2018-06-25T01:17:24.595Z,41.47
2018-06-25T01:18:33.730Z,41.47
2018-06-25T01:19:42.590Z,41.28
2018-06-25T01:20:51.724Z,41.18
2018-06-25T01:22:00.632Z,40.99
2018-06-25T01:23:09.496Z,40.7
2018-06-25T01:24:18.351Z,40.52
2018-06-25T01:25:27.507Z,40.52
2018-06-25T01:26:36.367Z,40.23
2018-06-25T01:27:45.580Z,39.84
2018-06-25T01:28:54.441Z,39.65
2018-06-25T01:30:03.573Z,39.56
2018-06-25T01:31:12.708Z,39.18
2018-06-25T01:32:21.567Z,39.37
2018-06-25T01:33:30.527Z,39.27
2018-06-25T01:34:39.666Z,39.18
2018-06-25T01:35:48.526Z,39.47
2018-06-25T01:36:57.386Z,39.08
2018-06-25T01:38:06.246Z,38.51
2018-06-25T01:39:15.544Z,38.89
2018-06-25T01:40:24.407Z,38.6
2018-06-25T01:41:33.542Z,38.41
2018-06-25T01:42:42.681Z,37.93
2018-06-25T01:43:51.816Z,37.93
2018-06-25T01:45:00.778Z,38.41
2018-06-25T01:46:09.636Z,38.6
2018-06-25T01:47:18.497Z,39.08
2018-06-25T01:48:27.356Z,39.37
2018-06-25T01:49:36.219Z,38.32
2018-06-25T01:50:45.413Z,38.22
2018-06-25T01:51:54.826Z,38.12
2018-06-25T01:53:03.688Z,38.41
2018-06-25T01:54:12.824Z,37.93
2018-06-25T01:55:21.683Z,37.84
2018-06-25T01:56:30.990Z,37.55
2018-06-25T01:57:39.853Z,37.46
2018-06-25T01:58:48.709Z,37.36
2018-06-25T01:59:57.847Z,38.32
2018-06-25T02:01:07.032Z,37.65
2018-06-25T02:02:16.042Z,37.46
2018-06-25T02:03:24.903Z,37.26
2018-06-25T02:04:33.767Z,37.46
2018-06-25T02:05:42.624Z,37.07
2018-06-25T02:06:51.484Z,37.36
2018-06-25T02:08:00.445Z,37.26
2018-06-25T02:09:09.580Z,36.98
2018-06-25T02:10:18.715Z,36.69
2018-06-25T02:11:27.579Z,36.79
2018-06-25T02:12:36.440Z,36.98
2018-06-25T02:13:45.398Z,36.88
2018-06-25T02:14:54.821Z,36.69
2018-06-25T02:16:03.949Z,36.69
2018-06-25T02:17:12.810Z,37.46
2018-06-25T02:18:21.673Z,37.07
2018-06-25T02:19:30.590Z,37.36
2018-06-25T02:20:39.447Z,37.07
2018-06-25T02:21:48.307Z,37.17
2018-06-25T02:22:57.166Z,37.36
2018-06-25T02:24:06.028Z,37.74
2018-06-25T02:25:15.240Z,38.7
2018-06-25T02:26:24.099Z,37.93
2018-06-25T02:27:32.960Z,37.74
2018-06-25T02:28:41.824Z,37.65
2018-06-25T02:29:50.686Z,37.36
2018-06-25T02:30:59.650Z,37.26
2018-06-25T02:32:08.507Z,37.46
2018-06-25T02:33:17.649Z,37.36
2018-06-25T02:34:26.518Z,37.46
2018-06-25T02:35:35.370Z,37.36
2018-06-25T02:36:44.381Z,37.74
2018-06-25T02:37:53.517Z,38.03
2018-06-25T02:39:02.379Z,37.84
2018-06-25T02:40:11.837Z,37.65
2018-06-25T02:41:20.699Z,37.93
2018-06-25T02:42:29.617Z,38.12
2018-06-25T02:43:38.757Z,38.03
2018-06-25T02:44:48.177Z,37.74
2018-06-25T02:45:57.316Z,37.93
2018-06-25T02:47:06.175Z,37.93
2018-06-25T02:48:15.186Z,38.03
2018-06-25T02:49:24.322Z,37.55
2018-06-25T02:50:33.184Z,37.55
2018-06-25T02:51:42.610Z,37.26
2018-06-25T02:52:51.457Z,37.74
2018-06-25T02:54:00.770Z,37.55
2018-06-25T02:55:09.905Z,37.46
2018-06-25T02:56:18.765Z,37.17
2018-06-25T02:57:27.628Z,37.17
2018-06-25T02:58:36.492Z,37.36
2018-06-25T02:59:45.504Z,37.55
2018-06-25T03:00:55.198Z,37.74
2018-06-25T03:02:04.906Z,38.24
2018-06-25T03:03:14.052Z,38.34
2018-06-25T03:04:22.914Z,37.93
2018-06-25T03:05:31.872Z,37.57
2018-06-25T03:06:41.008Z,37.55
2018-06-25T03:07:49.871Z,37.38
2018-06-25T03:08:59.006Z,37.09
2018-06-25T03:10:07.866Z,37.26
2018-06-25T03:11:16.730Z,37.17
2018-06-25T03:12:26.146Z,37.17
2018-06-25T03:13:35.292Z,37.17
2018-06-25T03:14:44.432Z,37.26
2018-06-25T03:15:53.296Z,37.36
2018-06-25T03:17:02.697Z,37.17
2018-06-25T03:18:11.552Z,37.26
2018-06-25T03:19:20.695Z,37.19
2018-06-25T03:20:29.572Z,37.48
2018-06-25T03:21:38.422Z,37.28
2018-06-25T03:22:47.609Z,37.09
2018-06-25T03:23:56.749Z,37.19
2018-06-25T03:25:05.608Z,37.28
2018-06-25T03:26:14.743Z,37.38
2018-06-25T03:27:23.602Z,36.99
2018-06-25T03:28:32.564Z,36.99
2018-06-25T03:29:41.434Z,36.88
2018-06-25T03:30:50.292Z,36.8
2018-06-25T03:31:59.428Z,37.07
2018-06-25T03:33:08.574Z,37.19
2018-06-25T03:34:17.585Z,37.19
2018-06-25T03:35:26.444Z,37.09
2018-06-25T03:36:35.306Z,37.28
2018-06-25T03:37:44.444Z,37.38
2018-06-25T03:38:53.579Z,37.38
2018-06-25T03:40:02.791Z,37.19
2018-06-25T03:41:11.651Z,36.71
2018-06-25T03:42:20.512Z,36.9
2018-06-25T03:43:29.373Z,36.8
2018-06-25T03:44:38.233Z,36.9
2018-06-25T03:45:47.474Z,36.71
2018-06-25T03:46:56.337Z,36.43
2018-06-25T03:48:05.196Z,36.33
2018-06-25T03:49:14.058Z,36.23
2018-06-25T03:50:23.472Z,36.04
2018-06-25T03:51:32.483Z,36.04
2018-06-25T03:52:41.346Z,36.04
2018-06-25T03:53:50.207Z,36.23
2018-06-25T03:54:59.074Z,36.23
2018-06-25T03:56:08.485Z,36.14
2018-06-25T03:57:17.594Z,35.85
2018-06-25T03:58:26.456Z,35.75
2018-06-25T03:59:35.648Z,35.37
2018-06-25T04:00:44.508Z,35.08
2018-06-25T04:01:53.370Z,35.28
2018-06-25T04:03:02.555Z,35.08
2018-06-25T04:04:11.419Z,34.89
2018-06-25T04:05:20.283Z,34.89
2018-06-25T04:06:29.145Z,34.8
2018-06-25T04:07:38.007Z,34.89
2018-06-25T04:08:46.867Z,34.8
2018-06-25T04:09:55.728Z,35.08
2018-06-25T04:11:04.590Z,34.42
2018-06-25T04:12:14.128Z,34.32
2018-06-25T04:13:22.967Z,34.32
2018-06-25T04:14:32.458Z,34.13
2018-06-25T04:15:41.321Z,34.03
2018-06-25T04:16:50.178Z,34.03
2018-06-25T04:17:59.039Z,33.75
2018-06-25T04:19:08.176Z,33.36
2018-06-25T04:20:17.369Z,33.46
2018-06-25T04:21:26.228Z,33.36
2018-06-25T04:22:35.367Z,33.27
2018-06-25T04:23:44.245Z,33.46
2018-06-25T04:24:53.096Z,33.27
2018-06-25T04:26:02.380Z,33.65
2018-06-25T04:27:11.244Z,34.13
2018-06-25T04:28:20.102Z,35.08
2018-06-25T04:29:28.958Z,34.99
2018-06-25T04:30:37.843Z,34.32
2018-06-25T04:31:47.031Z,34.03
2018-06-25T04:32:55.897Z,34.13
2018-06-25T04:34:05.044Z,33.94
2018-06-25T04:35:13.900Z,34.32
2018-06-25T04:36:23.312Z,34.8
2018-06-25T04:37:32.555Z,34.8
2018-06-25T04:38:41.415Z,34.89
2018-06-25T04:39:50.275Z,35.66
2018-06-25T04:40:59.144Z,36.33
2018-06-25T04:42:07.998Z,36.33
2018-06-25T04:43:17.007Z,36.61
2018-06-25T04:44:25.868Z,36.99
2018-06-25T04:45:34.731Z,36.82
2018-06-25T04:46:43.593Z,37.21
2018-06-25T04:47:53.012Z,37.3
2018-06-25T04:49:02.253Z,37.88
2018-06-25T04:50:11.113Z,39.22
2018-06-25T04:51:19.977Z,39.22
2018-06-25T04:52:29.110Z,39.89
2018-06-25T04:53:37.970Z,39.22
2018-06-25T04:54:46.833Z,39.89
2018-06-25T04:55:55.967Z,40.46
2018-06-25T04:57:05.107Z,40.94
2018-06-25T04:58:13.978Z,40.55
2018-06-25T04:59:22.834Z,42.56
2018-06-25T05:00:31.694Z,42.47
2018-06-25T05:01:40.554Z,42.47
2018-06-25T05:02:49.426Z,42.18
2018-06-25T05:03:58.288Z,42.37
2018-06-25T05:05:07.156Z,42.56
2018-06-25T05:06:16.068Z,43.52
2018-06-25T05:07:25.212Z,43.33
2018-06-25T05:08:34.353Z,44.48
2018-06-25T05:09:43.213Z,45.36
2018-06-25T05:10:52.350Z,46.7
2018-06-25T05:12:01.564Z,44.95
2018-06-25T05:13:10.428Z,46.8
2018-06-25T05:14:19.291Z,48.11
2018-06-25T05:15:28.152Z,49.19
2018-06-25T05:16:37.016Z,49.29
2018-06-25T05:17:45.881Z,48.52
2018-06-25T05:18:54.743Z,50.05
2018-06-25T05:20:03.609Z,49.66
2018-06-25T05:21:12.465Z,50.34
2018-06-25T05:22:21.329Z,50.52
2018-06-25T05:23:30.519Z,50.05
2018-06-25T05:24:39.376Z,50.81
2018-06-25T05:25:48.512Z,50.81
2018-06-25T05:26:57.656Z,50.34
2018-06-25T05:28:06.521Z,51.29
2018-06-25T05:29:15.861Z,51.48
2018-06-25T05:30:24.659Z,52.34
2018-06-25T05:31:33.798Z,51.2
2018-06-25T05:32:42.935Z,52.15
2018-06-25T05:33:51.798Z,51.29
2018-06-25T05:35:00.758Z,52.44
2018-06-25T05:36:09.622Z,52.15
2018-06-25T05:37:18.759Z,53.97
2018-06-25T05:38:27.622Z,53.3
2018-06-25T05:39:36.856Z,54.16
2018-06-25T05:40:45.760Z,52.92
2018-06-25T05:41:54.898Z,54.74
2018-06-25T05:43:03.759Z,54.07
2018-06-25T05:44:13.011Z,54.45
2018-06-25T05:45:21.873Z,54.55
2018-06-25T05:46:30.786Z,54.55
2018-06-25T05:47:39.648Z,54.36
2018-06-25T05:48:48.580Z,55.98
2018-06-25T05:49:57.734Z,55.82
2018-06-25T05:51:06.598Z,55.79
2018-06-25T05:52:15.883Z,55.91
2018-06-25T05:53:24.754Z,56.17
2018-06-25T05:54:33.619Z,56.08
2018-06-25T05:55:42.483Z,55.41
2018-06-25T05:56:51.644Z,56.3
2018-06-25T05:58:00.706Z,56.27
2018-06-25T05:59:09.847Z,57.04
2018-06-25T06:00:18.707Z,56.37
2018-06-25T06:01:27.569Z,56.87
2018-06-25T06:02:36.431Z,56.01
2018-06-25T06:03:45.400Z,57.35
2018-06-25T06:04:54.254Z,57.7
2018-06-25T06:06:03.116Z,57.64
2018-06-25T06:07:11.979Z,57.35
2018-06-25T06:08:20.839Z,57.7
2018-06-25T06:09:29.753Z,58.18
2018-06-25T06:10:38.616Z,58.02
2018-06-25T06:11:47.477Z,57.99
2018-06-25T06:12:56.617Z,57.7
2018-06-25T06:14:05.756Z,59.94
2018-06-25T06:15:14.866Z,58.86
2018-06-25T06:16:23.728Z,60.1
2018-06-25T06:17:32.593Z,58.76
2018-06-25T06:18:41.452Z,59.62
2018-06-25T06:19:50.312Z,60.58
2018-06-25T06:20:59.624Z,61.25
2018-06-25T06:22:08.485Z,61.28
2018-06-25T06:23:17.345Z,60.51
2018-06-25T06:24:26.220Z,60.86
2018-06-25T06:25:35.788Z,60.99
2018-06-25T06:26:44.981Z,60.86
2018-06-25T06:27:54.119Z,60.99
2018-06-25T06:29:02.978Z,60.86
2018-06-25T06:30:11.841Z,60.77
2018-06-25T06:31:20.703Z,60.96
2018-06-25T06:32:29.614Z,60.32
2018-06-25T06:33:38.476Z,60.32
2018-06-25T06:34:47.615Z,61.25
2018-06-25T06:35:56.475Z,60.86
2018-06-25T06:37:05.338Z,60.99
2018-06-25T06:38:14.349Z,61.25
2018-06-25T06:39:23.209Z,61.57
2018-06-25T06:40:32.070Z,61.08
2018-06-25T06:41:40.931Z,62.2
2018-06-25T06:42:49.791Z,62.52
2018-06-25T06:43:59.379Z,61.72
2018-06-25T06:45:08.244Z,62.11
2018-06-25T06:46:17.099Z,61.82
2018-06-25T06:47:25.962Z,61.85
2018-06-25T06:48:34.825Z,63.48
2018-06-25T06:49:43.836Z,62.81
2018-06-25T06:50:52.699Z,64.63
2018-06-25T06:52:01.557Z,63.86
2018-06-25T06:53:10.422Z,64.43
2018-06-25T06:54:19.285Z,63.48
2018-06-25T06:55:28.145Z,64.34
2018-06-25T06:56:37.008Z,64.15
2018-06-25T06:57:46.221Z,63.39
2018-06-25T06:58:55.438Z,63.48
2018-06-25T07:00:04.302Z,63.48
2018-06-25T07:01:13.315Z,63.86
2018-06-25T07:02:22.178Z,64.15
2018-06-25T07:03:31.321Z,63.96
2018-06-25T07:04:40.245Z,64.34
2018-06-25T07:05:49.097Z,63.48
2018-06-25T07:06:58.059Z,64.05
2018-06-25T07:08:06.918Z,64.25
2018-06-25T07:09:15.786Z,64.82
2018-06-25T07:10:24.744Z,64.34
2018-06-25T07:11:33.513Z,63.96
2018-06-25T07:12:42.422Z,63.96
2018-06-25T07:13:51.284Z,65.68
2018-06-25T07:15:00.150Z,64.69
2018-06-25T07:16:09.287Z,64.82
2018-06-25T07:17:18.151Z,64.53
2018-06-25T07:18:27.112Z,64.72
2018-06-25T07:19:35.981Z,64.53
2018-06-25T07:20:44.843Z,64.53
2018-06-25T07:21:53.704Z,65.78
2018-06-25T07:23:02.567Z,64.34
2018-06-25T07:24:11.881Z,64.63
2018-06-25T07:25:21.290Z,66.54
2018-06-25T07:26:30.155Z,65.3
2018-06-25T07:27:39.294Z,66.06
2018-06-25T07:28:48.209Z,65.49
2018-06-25T07:29:57.474Z,66.64
2018-06-25T07:31:06.338Z,67.21
2018-06-25T07:32:15.222Z,66.45
2018-06-25T07:33:24.665Z,67.79
2018-06-25T07:34:33.782Z,67.08
2018-06-25T07:35:42.743Z,68.27
2018-06-25T07:36:51.611Z,68.94
2018-06-25T07:38:00.472Z,69.23
2018-06-25T07:39:09.334Z,69.48
2018-06-25T07:40:18.472Z,68.62
2018-06-25T07:41:27.387Z,69.48
2018-06-25T07:42:36.533Z,70.18
2018-06-25T07:43:45.684Z,70.24
2018-06-25T07:44:54.822Z,69.29
2018-06-25T07:46:04.242Z,70.53
2018-06-25T07:47:13.178Z,70.95
2018-06-25T07:48:22.560Z,70.81
2018-06-25T07:49:31.421Z,71.11
2018-06-25T07:50:40.280Z,71.11
2018-06-25T07:51:49.138Z,70.62
2018-06-25T07:52:58.342Z,71.39
2018-06-25T07:54:07.762Z,71.58
2018-06-25T07:55:16.625Z,71.48
2018-06-25T07:56:25.761Z,71.39
2018-06-25T07:57:34.899Z,72.06
2018-06-25T07:58:44.087Z,71.77
2018-06-25T07:59:52.947Z,71.58
2018-06-25T08:01:01.810Z,72.06
2018-06-25T08:02:10.670Z,71.77
2018-06-25T08:03:19.532Z,71.58
2018-06-25T08:04:28.549Z,71.97
2018-06-25T08:05:37.962Z,71.81
2018-06-25T08:06:46.828Z,71.23
2018-06-25T08:07:55.690Z,70.95
2018-06-25T08:09:04.832Z,72.09
2018-06-25T08:10:13.842Z,71.58
2018-06-25T08:11:23.288Z,71.62
2018-06-25T08:12:32.157Z,70.95
2018-06-25T08:13:41.017Z,72.29
2018-06-25T08:14:49.876Z,71.77
2018-06-25T08:15:58.788Z,72
2018-06-25T08:17:07.651Z,71.58
2018-06-25T08:18:16.512Z,71.77
2018-06-25T08:19:25.371Z,71.48
2018-06-25T08:20:34.510Z,71.39
2018-06-25T08:21:43.471Z,71.23
2018-06-25T08:22:52.331Z,71.77
2018-06-25T08:24:01.473Z,71.39
2018-06-25T08:25:10.336Z,71.97
2018-06-25T08:26:19.752Z,72.25
2018-06-25T08:27:28.718Z,71.68
2018-06-25T08:28:37.584Z,71.97
2018-06-25T08:29:46.469Z,72.44
2018-06-25T08:30:55.304Z,72.25
2018-06-25T08:32:04.165Z,71.91
2018-06-25T08:33:13.026Z,72.54
2018-06-25T08:34:22.324Z,73.88
2018-06-25T08:35:31.560Z,73.11
2018-06-25T08:36:40.420Z,73.97
2018-06-25T08:37:49.283Z,73.4
2018-06-25T08:38:58.523Z,73.88
2018-06-25T08:40:07.679Z,73.21
2018-06-25T08:41:17.192Z,72.92
2018-06-25T08:42:26.331Z,73.3
2018-06-25T08:43:35.195Z,73.5
2018-06-25T08:44:44.383Z,73.4
2018-06-25T08:45:53.254Z,72.73
2018-06-25T08:47:02.534Z,73.79
2018-06-25T08:48:11.671Z,72.63
2018-06-25T08:49:20.811Z,73.59
2018-06-25T08:50:30.009Z,73.5
2018-06-25T08:51:39.160Z,73.79
2018-06-25T08:52:48.305Z,74.36
2018-06-25T08:53:57.452Z,73.97
2018-06-25T08:55:06.312Z,73.79
2018-06-25T08:56:15.230Z,74.45
2018-06-25T08:57:24.091Z,74.84
2018-06-25T08:58:33.229Z,74.65
2018-06-25T08:59:42.089Z,74.65
2018-06-25T09:00:51.247Z,74.74
2018-06-25T09:02:00.258Z,74.49
2018-06-25T09:03:09.619Z,75.73
2018-06-25T09:04:18.792Z,75.93
2018-06-25T09:05:28.614Z,75.64
2018-06-25T09:06:37.477Z,75.83
2018-06-25T09:07:46.481Z,77.26
2018-06-25T09:08:55.307Z,77.84
2018-06-25T09:10:04.444Z,77.08
2018-06-25T09:11:13.359Z,79.08
2018-06-25T09:12:22.462Z,80.33
2018-06-25T09:13:31.476Z,79.13
2018-06-25T09:14:40.340Z,79.99
2018-06-25T09:15:49.209Z,79.13
2018-06-25T09:16:58.897Z,80.37
2018-06-25T09:18:08.045Z,79.89
2018-06-25T09:19:17.004Z,79.8
2018-06-25T09:20:25.869Z,79.41
2018-06-25T09:21:34.729Z,81.04
2018-06-25T09:22:43.868Z,80.37
2018-06-25T09:23:53.007Z,80.94
2018-06-25T09:25:01.919Z,79.6
2018-06-25T09:26:10.781Z,80.85
2018-06-25T09:27:19.643Z,81.71
2018-06-25T09:28:28.505Z,81.52
2018-06-25T09:29:37.368Z,82.86
2018-06-25T09:30:46.313Z,82.19
2018-06-25T09:31:55.140Z,81.13
2018-06-25T09:33:04.006Z,82.14
2018-06-25T09:34:12.869Z,81.18
2018-06-25T09:35:21.778Z,82.62
2018-06-25T09:36:30.649Z,81.95
2018-06-25T09:37:39.513Z,82.14
2018-06-25T09:38:48.651Z,82.71
2018-06-25T09:39:57.520Z,82.62
2018-06-25T09:41:06.738Z,83.29
2018-06-25T09:42:15.580Z,82.57
2018-06-25T09:43:24.715Z,82.38
2018-06-25T09:44:33.576Z,82.67
2018-06-25T09:45:42.438Z,82.86
2018-06-25T09:46:51.318Z,82.67
2018-06-25T09:48:00.948Z,82.38
2018-06-25T09:49:09.811Z,82.86
2018-06-25T09:50:18.674Z,82.57
2018-06-25T09:51:27.535Z,83.19
2018-06-25T09:52:36.401Z,82.57
2018-06-25T09:53:45.562Z,83.34
2018-06-25T09:54:54.824Z,83.15
2018-06-25T09:56:03.871Z,82.96
2018-06-25T09:57:12.733Z,82.67
2018-06-25T09:58:21.888Z,82.62
2018-06-25T09:59:30.849Z,83.05
2018-06-25T10:00:39.713Z,83.34
2018-06-25T10:01:48.577Z,83.25
2018-06-25T10:02:57.442Z,83.25
2018-06-25T10:04:06.587Z,82.57
2018-06-25T10:05:15.554Z,83.63
2018-06-25T10:06:24.416Z,83.53
2018-06-25T10:07:33.555Z,83.05
2018-06-25T10:08:42.423Z,83.15
2018-06-25T10:09:51.285Z,83.15
2018-06-25T10:11:00.298Z,83.34
2018-06-25T10:12:09.717Z,83.25
2018-06-25T10:13:18.854Z,83.44
2018-06-25T10:14:27.718Z,82.48
2018-06-25T10:15:36.860Z,83.72
2018-06-25T10:16:45.771Z,83.44
2018-06-25T10:17:54.912Z,82.29
2018-06-25T10:19:04.049Z,83.86
2018-06-25T10:20:12.912Z,83.63
2018-06-25T10:21:21.804Z,84.2
2018-06-25T10:22:31.171Z,84.68
2018-06-25T10:23:40.091Z,84.05
2018-06-25T10:24:48.899Z,84.15
2018-06-25T10:25:58.601Z,84.15
2018-06-25T10:27:07.464Z,85.11
2018-06-25T10:28:16.737Z,83.67
2018-06-25T10:29:26.327Z,83.86
2018-06-25T10:30:35.897Z,86.01
2018-06-25T10:31:44.764Z,86.21
2018-06-25T10:32:53.626Z,86.49
2018-06-25T10:34:02.770Z,85.82
2018-06-25T10:35:11.635Z,86.01
2018-06-25T10:36:20.497Z,87.07
2018-06-25T10:37:29.434Z,86.49
2018-06-25T10:38:38.301Z,87.16
2018-06-25T10:39:47.166Z,86.54
2018-06-25T10:40:56.031Z,86.35
2018-06-25T10:42:04.991Z,87.93
2018-06-25T10:43:13.843Z,86.35
2018-06-25T10:44:22.785Z,87.35
2018-06-25T10:45:31.776Z,87.7
2018-06-25T10:46:40.669Z,87.21
2018-06-25T10:47:49.583Z,87.7
2018-06-25T10:48:58.503Z,87.21
2018-06-25T10:50:07.696Z,87.88
2018-06-25T10:51:16.631Z,87.88
2018-06-25T10:52:26.108Z,87.07
2018-06-25T10:53:35.143Z,87.07
2018-06-25T10:54:45.654Z,87.84
2018-06-25T10:55:54.679Z,87.93
2018-06-25T10:57:04.041Z,87.84
2018-06-25T10:58:13.073Z,88.46
2018-06-25T10:59:22.162Z,88.56
2018-06-25T11:00:31.557Z,88.17
2018-06-25T11:01:40.471Z,87.6
2018-06-25T11:02:49.437Z,87.64
2018-06-25T11:03:58.631Z,88.41
2018-06-25T11:05:07.528Z,87.74
2018-06-25T11:06:16.700Z,87.84
2018-06-25T11:07:26.178Z,88.98
2018-06-25T11:08:34.855Z,87.55
2018-06-25T11:09:43.840Z,88.22
2018-06-25T11:10:52.840Z,88.31
2018-06-25T11:12:01.860Z,88.51
2018-06-25T11:13:10.802Z,88.02
2018-06-25T11:14:19.704Z,88.6
2018-06-25T11:15:28.860Z,88.41
2018-06-25T11:16:38.255Z,88.84
2018-06-25T11:17:47.181Z,89.61
2018-06-25T11:18:56.415Z,88.84
2018-06-25T11:20:05.312Z,88.6
2018-06-25T11:21:14.174Z,88.7
2018-06-25T11:22:23.465Z,89.47
2018-06-25T11:23:32.526Z,88.7
2018-06-25T11:24:41.415Z,88.79
2018-06-25T11:25:50.289Z,88.6
2018-06-25T11:26:59.611Z,88.7
2018-06-25T11:28:09.045Z,88.74
2018-06-25T11:29:18.223Z,88.74
2018-06-25T11:30:27.397Z,88.65
2018-06-25T11:31:36.260Z,89.03
2018-06-25T11:32:45.125Z,88.93
2018-06-25T11:33:54.090Z,89.03
2018-06-25T11:35:03.229Z,87.98
2018-06-25T11:36:12.095Z,88.74
2018-06-25T11:37:21.239Z,88.07
2018-06-25T11:38:30.102Z,88.45
2018-06-25T11:39:39.016Z,88.79
2018-06-25T11:40:47.882Z,89.17
2018-06-25T11:41:56.823Z,88.4
2018-06-25T11:43:05.610Z,89.07
2018-06-25T11:44:14.544Z,88.21
2018-06-25T11:45:23.818Z,88.31
2018-06-25T11:46:32.793Z,88.69
2018-06-25T11:47:41.705Z,88.49
2018-06-25T11:48:50.607Z,88.98
2018-06-25T11:49:59.534Z,88.49
2018-06-25T11:51:08.676Z,88.64
2018-06-25T11:52:17.565Z,88.16
2018-06-25T11:53:27.015Z,88.25
2018-06-25T11:54:35.903Z,88.45
2018-06-25T11:55:44.817Z,88.45
2018-06-25T11:56:53.874Z,88.25
2018-06-25T11:58:02.800Z,88.73
2018-06-25T11:59:11.689Z,88.25
2018-06-25T12:00:20.580Z,87.68
2018-06-25T12:01:29.465Z,87.96
2018-06-25T12:02:38.857Z,87.68
2018-06-25T12:03:48.046Z,87.87
2018-06-25T12:04:57.239Z,87.72
2018-06-25T12:06:06.123Z,87.77
2018-06-25T12:07:15.318Z,88.06
2018-06-25T12:08:24.729Z,88.49
2018-06-25T12:09:33.636Z,87.62
2018-06-25T12:10:42.597Z,88.68
2018-06-25T12:11:51.855Z,87.92
2018-06-25T12:13:00.743Z,88.78
2018-06-25T12:14:10.062Z,89.64
2018-06-25T12:15:19.321Z,89.07
2018-06-25T12:16:28.207Z,89.74
2018-06-25T12:17:37.126Z,89.64
2018-06-25T12:18:45.993Z,89.64
2018-06-25T12:19:55.237Z,88.39
2018-06-25T12:21:04.861Z,88.3
2018-06-25T12:22:13.778Z,88.87
2018-06-25T12:23:22.649Z,87.92
2018-06-25T12:24:31.517Z,88.78
2018-06-25T12:25:40.382Z,87.62
2018-06-25T12:26:49.298Z,88.68
2018-06-25T12:27:58.184Z,88.59
2018-06-25T12:29:07.053Z,88.39
2018-06-25T12:30:16.464Z,88.39
2018-06-25T12:31:25.468Z,88.59
2018-06-25T12:32:34.334Z,87.82
2018-06-25T12:33:43.201Z,88.44
2018-06-25T12:34:52.346Z,87.92
2018-06-25T12:36:01.214Z,89.01
2018-06-25T12:37:10.359Z,89.16
2018-06-25T12:38:19.511Z,88.15
2018-06-25T12:39:28.376Z,87.86
2018-06-25T12:40:37.243Z,86.99
2018-06-25T12:41:46.111Z,87.48
2018-06-25T12:42:54.977Z,86.71
2018-06-25T12:44:04.144Z,88.34
2018-06-25T12:45:13.013Z,87.96
2018-06-25T12:46:21.886Z,88.34
2018-06-25T12:47:31.310Z,87.96
2018-06-25T12:48:40.187Z,87.19
2018-06-25T12:49:49.058Z,87.13
2018-06-25T12:50:58.303Z,87.86
2018-06-25T12:52:07.213Z,86.61
2018-06-25T12:53:16.216Z,87.09
2018-06-25T12:54:25.641Z,87.76
2018-06-25T12:55:34.514Z,86.8
2018-06-25T12:56:43.390Z,88.24
2018-06-25T12:57:52.550Z,88.15
2018-06-25T12:59:01.705Z,88.34
2018-06-25T13:00:10.573Z,87.57
2018-06-25T13:01:19.459Z,86.99
2018-06-25T13:02:29.248Z,87.09
2018-06-25T13:03:38.129Z,88.44
2018-06-25T13:04:47.002Z,87.96
2018-06-25T13:05:55.868Z,87.76
2018-06-25T13:07:04.735Z,88.06
2018-06-25T13:08:13.652Z,88.15
2018-06-25T13:09:22.802Z,88.15
2018-06-25T13:10:31.668Z,87.81
2018-06-25T13:11:40.535Z,86.85
2018-06-25T13:12:49.407Z,87.04
2018-06-25T13:13:58.695Z,87.52
2018-06-25T13:15:07.584Z,88.1
2018-06-25T13:16:16.696Z,86.85
2018-06-25T13:17:25.562Z,87.9
2018-06-25T13:18:34.429Z,86.75
2018-06-25T13:19:43.331Z,87.81
2018-06-25T13:20:52.211Z,86.65
2018-06-25T13:22:01.098Z,86.75
2018-06-25T13:23:10.253Z,86.75
2018-06-25T13:24:19.125Z,85.78
2018-06-25T13:25:28.065Z,86.41
2018-06-25T13:26:36.907Z,85.83
2018-06-25T13:27:46.115Z,84.19
2018-06-25T13:28:55.041Z,82.6
2018-06-25T13:30:03.912Z,84.05
2018-06-25T13:31:13.286Z,84.14
2018-06-25T13:32:22.151Z,84.05
2018-06-25T13:33:31.648Z,84.72
2018-06-25T13:34:40.524Z,84.05
2018-06-25T13:35:49.675Z,83.89
2018-06-25T13:36:58.697Z,82.45
2018-06-25T13:38:07.696Z,80.66
2018-06-25T13:39:17.037Z,83.3
2018-06-25T13:40:26.520Z,82.34
2018-06-25T13:41:35.829Z,81.95
2018-06-25T13:42:44.756Z,80.83
2018-06-25T13:43:53.634Z,81.32
2018-06-25T13:45:02.512Z,80.06
2018-06-25T13:46:11.384Z,79.33
2018-06-25T13:47:20.264Z,77.25
2018-06-25T13:48:29.191Z,77.05
2018-06-25T13:49:38.385Z,79.56
2018-06-25T13:50:47.260Z,77.25
2018-06-25T13:51:56.137Z,79.33
2018-06-25T13:53:05.292Z,79.91
2018-06-25T13:54:14.266Z,80.2
2018-06-25T13:55:23.143Z,80.35
2018-06-25T13:56:32.026Z,78.36
2018-06-25T13:57:40.902Z,78.56
2018-06-25T13:58:50.057Z,77.21
2018-06-25T13:59:59.668Z,78.56
2018-06-25T14:01:08.544Z,80.1
2018-06-25T14:02:17.427Z,78.94
2018-06-25T14:03:26.306Z,77.34
2018-06-25T14:04:35.198Z,77.34
2018-06-25T14:05:44.442Z,78.21
2018-06-25T14:06:53.595Z,78.69
2018-06-25T14:08:02.475Z,77.28
2018-06-25T14:09:11.450Z,75.93
2018-06-25T14:10:20.326Z,76.42
2018-06-25T14:11:29.406Z,76.03
2018-06-25T14:12:38.279Z,75.84
2018-06-25T14:13:47.163Z,76.42
2018-06-25T14:14:56.045Z,77.09
2018-06-25T14:16:04.923Z,75.64
2018-06-25T14:17:13.850Z,75.06
2018-06-25T14:18:22.734Z,75.26
2018-06-25T14:19:31.894Z,74.81
2018-06-25T14:20:41.108Z,75.45
2018-06-25T14:21:50.064Z,75.06
2018-06-25T14:22:59.301Z,75.1
2018-06-25T14:24:08.190Z,75.93
2018-06-25T14:25:17.368Z,75.2
2018-06-25T14:26:26.253Z,75.2
2018-06-25T14:27:35.143Z,74.81
2018-06-25T14:28:44.080Z,75.58
2018-06-25T14:29:52.997Z,74.52
2018-06-25T14:31:01.923Z,73.16
2018-06-25T14:32:10.896Z,73.55
2018-06-25T14:33:19.846Z,72.14
2018-06-25T14:34:28.728Z,71.69
2018-06-25T14:35:37.612Z,73.43
2018-06-25T14:36:46.507Z,72.95
2018-06-25T14:37:55.672Z,72.36
2018-06-25T14:39:04.562Z,73.72
2018-06-25T14:40:13.621Z,72.6
2018-06-25T14:41:22.887Z,71.14
2018-06-25T14:42:32.081Z,71.92
2018-06-25T14:43:40.949Z,72.11
2018-06-25T14:44:49.852Z,71.34
2018-06-25T14:45:59.075Z,72.69
2018-06-25T14:47:07.972Z,72.02
2018-06-25T14:48:17.234Z,72.69
2018-06-25T14:49:26.751Z,73.14
2018-06-25T14:50:35.918Z,72.27